createdAt,value
2023-02-07T00:00:13.315Z,20.98
2023-02-07T00:02:49.706Z,21.20
2023-02-07T00:05:19.238Z,19.38
2023-02-07T00:07:48.487Z,17.85
2023-02-07T00:10:17.917Z,20.90
2023-02-07T00:12:47.163Z,18.48
2023-02-07T00:15:16.535Z,24.13
2023-02-07T00:17:45.835Z,17.90
2023-02-07T00:20:15.180Z,19.73
2023-02-07T00:22:44.658Z,19.52
2023-02-07T00:25:14.517Z,22.45
2023-02-07T00:27:43.823Z,21.05
2023-02-07T00:30:13.379Z,14.55
2023-02-07T00:32:42.634Z,25.33
2023-02-07T00:35:12.163Z,26.23
2023-02-07T00:37:41.593Z,23.15
2023-02-07T00:40:11.055Z,17.05
2023-02-07T00:42:40.476Z,20.50
2023-02-07T00:45:09.931Z,23.98
2023-02-07T00:47:39.258Z,18.35
2023-02-07T00:50:08.781Z,25.50
2023-02-07T00:52:38.065Z,18.88
2023-02-07T00:55:07.433Z,26.02
2023-02-07T00:57:37.025Z,21.15
2023-02-07T01:00:06.942Z,23.33
2023-02-07T01:02:36.297Z,19.10
2023-02-07T01:05:05.815Z,25.10
2023-02-07T01:07:36.142Z,20.55
2023-02-07T01:10:05.370Z,22.45
2023-02-07T01:12:34.970Z,20.98
2023-02-07T01:15:04.281Z,20.33
2023-02-07T01:17:33.567Z,25.98
2023-02-07T01:20:03.225Z,21.38
2023-02-07T01:22:32.619Z,19.42
2023-02-07T01:25:01.863Z,22.45
2023-02-07T01:27:31.253Z,24.13
2023-02-07T01:30:00.538Z,20.52
2023-02-07T01:32:30.451Z,25.17
2023-02-07T01:34:59.727Z,18.10
2023-02-07T01:37:29.516Z,20.25
2023-02-07T01:39:58.838Z,22.02
2023-02-07T01:42:29.808Z,21.10
2023-02-07T01:45:02.464Z,24.95
2023-02-07T01:47:32.394Z,20.08
2023-02-07T01:50:01.851Z,20.20
2023-02-07T01:52:34.742Z,23.17
2023-02-07T01:55:06.872Z,19.00
2023-02-07T01:57:36.445Z,21.50
2023-02-07T02:00:06.786Z,18.75
2023-02-07T02:02:44.116Z,25.67
2023-02-07T02:05:15.280Z,22.67
2023-02-07T02:07:44.819Z,19.85
2023-02-07T02:10:18.176Z,22.65
2023-02-07T02:13:06.379Z,16.73
2023-02-07T02:15:43.160Z,23.17
2023-02-07T02:18:25.629Z,21.98
2023-02-07T02:21:14.637Z,24.08
2023-02-07T02:23:53.088Z,14.68
2023-02-07T02:26:42.155Z,20.48
2023-02-07T02:29:14.587Z,26.92
2023-02-07T02:34:19.358Z,22.15
2023-02-07T02:36:53.582Z,18.65
2023-02-07T02:39:27.620Z,17.15
2023-02-07T02:42:03.006Z,21.15
2023-02-07T02:44:40.968Z,23.33
2023-02-07T02:47:11.230Z,27.23
2023-02-07T02:49:40.772Z,29.23
2023-02-07T02:52:10.154Z,20.60
2023-02-07T02:54:40.824Z,18.17
2023-02-07T02:57:30.943Z,18.13
2023-02-07T03:00:12.407Z,20.98
2023-02-07T03:02:51.105Z,20.55
2023-02-07T03:05:26.713Z,21.50
2023-02-07T03:08:14.836Z,21.23
2023-02-07T03:11:02.681Z,24.60
2023-02-07T03:13:36.143Z,21.88
2023-02-07T03:16:25.701Z,22.25
2023-02-07T03:18:54.958Z,22.10
2023-02-07T03:21:24.242Z,31.05
2023-02-07T03:23:55.510Z,26.27
2023-02-07T03:26:25.741Z,20.00
2023-02-07T03:28:57.844Z,18.35
2023-02-07T03:31:28.409Z,24.25
2023-02-07T03:34:01.561Z,27.02
2023-02-07T03:36:41.621Z,27.25
2023-02-07T03:39:10.923Z,22.65
2023-02-07T03:42:00.426Z,24.23
2023-02-07T03:44:31.155Z,27.08
2023-02-07T03:47:00.448Z,25.05
2023-02-07T03:49:29.714Z,32.25
2023-02-07T03:51:58.975Z,22.55
2023-02-07T03:54:29.164Z,27.50
2023-02-07T03:56:58.443Z,38.38
2023-02-07T03:59:27.675Z,32.00
2023-02-07T04:01:56.988Z,27.67
2023-02-07T04:04:26.256Z,27.95
2023-02-07T04:06:55.562Z,27.45
2023-02-07T04:09:24.872Z,32.60
2023-02-07T04:11:54.366Z,39.28
2023-02-07T04:14:23.623Z,36.05
2023-02-07T04:16:52.863Z,27.23
2023-02-07T04:19:22.292Z,32.35
2023-02-07T04:21:51.605Z,38.72
2023-02-07T04:24:20.908Z,40.30
2023-02-07T04:26:50.181Z,28.77
2023-02-07T04:29:19.496Z,34.67
2023-02-07T04:31:48.738Z,38.25
2023-02-07T04:34:18.298Z,36.53
2023-02-07T04:36:47.595Z,42.65
2023-02-07T04:39:16.840Z,41.78
2023-02-07T04:41:46.146Z,41.97
2023-02-07T04:44:15.433Z,48.75
2023-02-07T04:46:44.705Z,47.30
2023-02-07T04:49:14.004Z,45.38
2023-02-07T04:51:43.263Z,40.28
2023-02-07T04:54:12.520Z,44.03
2023-02-07T04:56:41.777Z,42.17
2023-02-07T04:59:11.024Z,45.78
2023-02-07T05:01:40.299Z,38.22
2023-02-07T05:04:09.611Z,36.10
2023-02-07T05:06:38.893Z,35.13
2023-02-07T05:09:08.173Z,40.50
2023-02-07T05:11:37.458Z,33.88
2023-02-07T05:14:06.802Z,35.85
2023-02-07T05:16:36.110Z,35.50
2023-02-07T05:19:05.531Z,30.02
2023-02-07T05:21:34.776Z,32.58
2023-02-07T05:24:04.653Z,29.90
2023-02-07T05:26:33.931Z,32.03
2023-02-07T05:29:03.238Z,29.17
2023-02-07T05:31:44.854Z,36.13
2023-02-07T05:34:14.396Z,33.25
2023-02-07T05:36:43.645Z,32.38
2023-02-07T05:39:12.945Z,31.17
2023-02-07T05:41:42.240Z,30.38
2023-02-07T05:44:11.570Z,26.25
2023-02-07T05:46:40.868Z,24.02
2023-02-07T05:49:10.120Z,26.10
2023-02-07T05:51:39.382Z,34.72
2023-02-07T05:54:08.647Z,28.50
2023-02-07T05:56:37.930Z,34.22
2023-02-07T05:59:07.168Z,28.40
2023-02-07T06:01:37.454Z,29.63
2023-02-07T06:04:06.847Z,34.08
2023-02-07T06:06:36.448Z,28.27
2023-02-07T06:09:05.754Z,27.00
2023-02-07T06:11:35.062Z,29.40
2023-02-07T06:14:04.351Z,29.52
2023-02-07T06:16:33.578Z,34.30
2023-02-07T06:19:03.571Z,32.78
2023-02-07T06:21:45.788Z,30.83
2023-02-07T06:24:15.644Z,31.40
2023-02-07T06:26:46.812Z,31.52
2023-02-07T06:29:16.263Z,31.33
2023-02-07T06:31:45.578Z,28.45
2023-02-07T06:34:14.869Z,37.38
2023-02-07T06:36:44.112Z,29.95
2023-02-07T06:39:13.380Z,28.15
2023-02-07T06:41:42.623Z,33.50
2023-02-07T06:44:11.911Z,36.75
2023-02-07T06:46:41.246Z,33.78
2023-02-07T06:49:10.567Z,27.73
2023-02-07T06:51:39.892Z,31.13
2023-02-07T06:54:10.629Z,34.90
2023-02-07T06:56:40.228Z,34.90
2023-02-07T06:59:09.613Z,27.75
2023-02-07T07:01:38.857Z,25.58
2023-02-07T07:04:08.211Z,34.35
2023-02-07T07:06:37.540Z,29.25
2023-02-07T07:09:07.081Z,30.35
2023-02-07T07:11:36.401Z,32.45
2023-02-07T07:14:05.645Z,30.75
2023-02-07T07:16:34.896Z,34.03
2023-02-07T07:19:04.181Z,31.60
2023-02-07T07:21:33.398Z,33.47
2023-02-07T07:24:02.687Z,28.30
2023-02-07T07:26:47.864Z,27.65
2023-02-07T07:29:18.713Z,29.02
2023-02-07T07:31:48.359Z,30.42
2023-02-07T07:34:18.262Z,29.42
2023-02-07T07:36:47.605Z,30.58
2023-02-07T07:39:17.174Z,31.50
2023-02-07T07:41:46.563Z,34.22
2023-02-07T07:44:30.879Z,25.08
2023-02-07T07:47:00.152Z,36.13
2023-02-07T07:49:29.495Z,34.97
2023-02-07T07:51:58.816Z,31.23
2023-02-07T07:54:28.066Z,37.25
2023-02-07T07:56:57.356Z,35.28
2023-02-07T07:59:26.679Z,36.22
2023-02-07T08:01:55.921Z,37.05
2023-02-07T08:04:25.309Z,36.67
2023-02-07T08:06:54.820Z,35.47
2023-02-07T08:09:24.128Z,35.65
2023-02-07T08:11:53.396Z,29.25
2023-02-07T08:14:22.715Z,31.73
2023-02-07T08:16:51.912Z,34.08
2023-02-07T08:19:21.217Z,41.10
2023-02-07T08:21:50.627Z,33.83
2023-02-07T08:24:19.883Z,38.03
2023-02-07T08:26:49.146Z,39.33
2023-02-07T08:29:18.420Z,31.42
2023-02-07T08:31:49.022Z,39.38
2023-02-07T08:34:18.840Z,37.92
2023-02-07T08:36:48.123Z,40.58
2023-02-07T08:39:17.350Z,47.20
2023-02-07T08:41:46.701Z,34.78
2023-02-07T08:44:16.206Z,39.22
2023-02-07T08:46:45.487Z,33.63
2023-02-07T08:49:14.730Z,43.58
2023-02-07T08:51:44.511Z,34.40
2023-02-07T08:54:13.776Z,38.15
2023-02-07T08:56:43.025Z,40.58
2023-02-07T08:59:12.308Z,40.88
2023-02-07T09:01:41.579Z,31.92
2023-02-07T09:04:11.712Z,32.88
2023-02-07T09:06:41.609Z,40.72
2023-02-07T09:09:10.879Z,39.33
2023-02-07T09:11:40.274Z,39.92
2023-02-07T09:14:09.770Z,38.60
2023-02-07T09:16:39.036Z,40.15
2023-02-07T09:19:08.415Z,34.40
2023-02-07T09:21:37.812Z,32.30
2023-02-07T09:24:07.254Z,34.25
2023-02-07T09:26:36.519Z,33.72
2023-02-07T09:29:05.846Z,44.72
2023-02-07T09:31:36.489Z,31.25
2023-02-07T09:34:05.836Z,33.65
2023-02-07T09:36:35.125Z,34.40
2023-02-07T09:39:04.560Z,32.92
2023-02-07T09:41:39.787Z,31.75
2023-02-07T09:44:15.749Z,30.08
2023-02-07T09:46:49.870Z,35.15
2023-02-07T09:49:23.252Z,34.47
2023-02-07T09:51:53.688Z,31.02
2023-02-07T09:54:43.619Z,36.05
2023-02-07T09:57:17.265Z,27.83
2023-02-07T09:59:50.775Z,28.55
2023-02-07T10:02:29.076Z,29.20
2023-02-07T10:05:00.426Z,36.20
2023-02-07T10:07:30.796Z,24.90
2023-02-07T10:10:00.022Z,28.85
2023-02-07T10:12:39.448Z,28.38
2023-02-07T10:15:10.728Z,31.70
2023-02-07T10:17:43.126Z,27.33
2023-02-07T10:22:46.365Z,32.50
2023-02-07T10:25:26.074Z,26.58
2023-02-07T10:28:14.108Z,31.17
2023-02-07T10:30:57.142Z,29.23
2023-02-07T10:33:34.948Z,26.23
2023-02-07T10:36:09.355Z,26.55
2023-02-07T10:39:08.535Z,25.77
2023-02-07T10:41:40.053Z,26.77
2023-02-07T10:44:12.202Z,20.40
2023-02-07T10:46:42.954Z,20.63
2023-02-07T10:49:24.751Z,18.33
2023-02-07T10:51:54.827Z,15.38
2023-02-07T10:54:24.662Z,17.00
2023-02-07T10:56:56.016Z,16.92
2023-02-07T10:59:40.555Z,14.40
2023-02-07T11:02:28.531Z,15.45
2023-02-07T11:04:58.756Z,13.40
2023-02-07T11:07:32.472Z,15.45
2023-02-07T11:10:19.979Z,11.65
2023-02-07T11:12:53.285Z,14.52
2023-02-07T11:15:23.809Z,13.52
2023-02-07T11:17:54.984Z,12.88
2023-02-07T11:20:32.046Z,16.70
2023-02-07T11:23:01.427Z,13.60
2023-02-07T11:25:32.418Z,15.52
2023-02-07T11:28:02.123Z,16.42
2023-02-07T11:30:32.397Z,14.20
2023-02-07T11:33:02.628Z,17.15
2023-02-07T11:35:31.925Z,12.98
2023-02-07T11:38:06.025Z,17.58
2023-02-07T11:40:51.603Z,19.35
2023-02-07T11:43:23.102Z,13.52
2023-02-07T11:45:59.460Z,15.93
2023-02-07T11:48:30.714Z,14.98
2023-02-07T11:51:01.817Z,19.25
2023-02-07T11:53:36.124Z,16.55
2023-02-07T11:56:06.318Z,16.70
2023-02-07T11:58:37.773Z,14.15
2023-02-07T12:01:08.083Z,13.40
2023-02-07T12:03:43.418Z,12.38
2023-02-07T12:06:17.081Z,15.00
2023-02-07T12:08:46.902Z,12.63
2023-02-07T12:11:16.142Z,12.50
2023-02-07T12:13:47.368Z,10.95
2023-02-07T12:16:23.232Z,12.55
2023-02-07T12:18:55.077Z,12.70
2023-02-07T12:21:33.933Z,12.98
2023-02-07T12:24:08.741Z,12.05
2023-02-07T12:26:43.750Z,10.90
2023-02-07T12:29:22.086Z,11.90
2023-02-07T12:32:04.808Z,13.40
2023-02-07T12:34:46.371Z,13.45
2023-02-07T12:37:24.261Z,15.45
2023-02-07T12:40:13.092Z,13.95
2023-02-07T12:42:45.823Z,12.25
2023-02-07T12:45:19.975Z,15.77
2023-02-07T12:47:58.061Z,13.10
2023-02-07T12:50:27.329Z,13.25
2023-02-07T12:53:05.654Z,11.10
2023-02-07T12:55:43.685Z,12.52
2023-02-07T12:58:15.720Z,12.10
2023-02-07T13:00:52.551Z,11.25
2023-02-07T13:03:30.657Z,12.95
2023-02-07T13:06:12.152Z,16.15
2023-02-07T13:09:00.240Z,11.35
2023-02-07T13:11:41.632Z,11.15
2023-02-07T13:14:19.134Z,12.52
2023-02-07T13:16:54.668Z,12.98
2023-02-07T13:19:33.470Z,12.40
2023-02-07T13:22:11.977Z,11.88
2023-02-07T13:24:42.647Z,9.45
2023-02-07T13:27:17.377Z,12.48
2023-02-07T13:29:48.222Z,10.40
2023-02-07T13:32:21.565Z,10.88
2023-02-07T13:34:53.762Z,8.45
2023-02-07T13:37:25.392Z,7.25
2023-02-07T13:40:00.676Z,11.10
2023-02-07T13:42:39.273Z,9.35
2023-02-07T13:45:22.345Z,11.07
2023-02-07T13:47:54.732Z,8.77
2023-02-07T13:52:59.239Z,9.10
2023-02-07T13:55:28.520Z,10.15
2023-02-07T13:58:11.405Z,9.45
2023-02-07T14:00:50.602Z,10.02
2023-02-07T14:03:24.578Z,13.77
2023-02-07T14:05:54.031Z,8.93
2023-02-07T14:08:27.146Z,7.78
2023-02-07T14:11:01.680Z,10.48
2023-02-07T14:13:30.924Z,11.98
2023-02-07T14:16:00.373Z,9.95
2023-02-07T14:18:46.593Z,8.60
2023-02-07T14:21:21.728Z,8.75
2023-02-07T14:24:00.016Z,10.40
2023-02-07T14:26:38.452Z,11.20
2023-02-07T14:29:22.999Z,8.05
2023-02-07T14:31:52.307Z,8.25
2023-02-07T14:34:24.791Z,9.25
2023-02-07T14:39:24.355Z,10.82
2023-02-07T14:41:54.569Z,11.80
2023-02-07T14:44:26.487Z,8.18
2023-02-07T14:46:58.001Z,7.70
2023-02-07T14:49:36.410Z,10.27
2023-02-07T14:52:15.356Z,7.40
2023-02-07T14:54:53.679Z,8.23
2023-02-07T14:57:22.927Z,9.80
2023-02-07T15:00:15.593Z,9.48
2023-02-07T15:02:58.824Z,10.77
2023-02-07T15:05:29.685Z,12.38
2023-02-07T15:08:06.341Z,10.15
2023-02-07T15:10:38.177Z,8.60
2023-02-07T15:13:09.303Z,8.18
2023-02-07T15:15:52.821Z,7.57
2023-02-07T15:18:23.408Z,6.95
2023-02-07T15:20:59.496Z,10.82
2023-02-07T15:23:30.450Z,9.15
2023-02-07T15:26:00.934Z,9.15
2023-02-07T15:28:32.028Z,10.82
2023-02-07T15:31:18.377Z,8.40
2023-02-07T15:33:50.552Z,8.93
2023-02-07T15:36:29.066Z,8.80
2023-02-07T15:38:59.090Z,8.40
2023-02-07T15:41:28.884Z,8.07
2023-02-07T15:44:00.171Z,9.63
2023-02-07T15:46:29.619Z,8.55
2023-02-07T15:48:59.047Z,11.05
2023-02-07T15:51:29.689Z,10.27
2023-02-07T15:54:00.592Z,11.32
2023-02-07T15:56:32.201Z,12.07
2023-02-07T15:59:11.344Z,11.55
2023-02-07T16:01:41.551Z,8.70
2023-02-07T16:04:11.215Z,13.10
2023-02-07T16:06:40.475Z,9.25
2023-02-07T16:09:09.830Z,10.18
2023-02-07T16:11:40.446Z,8.18
2023-02-07T16:14:12.858Z,9.30
2023-02-07T16:19:11.325Z,8.63
2023-02-07T16:21:40.650Z,10.05
2023-02-07T16:24:11.992Z,9.52
2023-02-07T16:26:41.301Z,12.43
2023-02-07T16:29:11.140Z,9.57
2023-02-07T16:31:40.530Z,10.52
2023-02-07T16:34:11.833Z,11.63
2023-02-07T16:36:41.138Z,10.82
2023-02-07T16:39:10.678Z,11.20
2023-02-07T16:41:42.478Z,10.45
2023-02-07T16:44:17.758Z,12.55
2023-02-07T16:46:47.854Z,10.30
2023-02-07T16:49:27.198Z,11.10
2023-02-07T16:51:56.464Z,9.38
2023-02-07T16:54:25.781Z,8.50
2023-02-07T16:57:02.056Z,13.75
2023-02-07T16:59:32.032Z,9.40
2023-02-07T17:02:01.358Z,11.13
2023-02-07T17:04:30.709Z,14.88
2023-02-07T17:06:59.943Z,12.52
2023-02-07T17:09:29.200Z,9.40
2023-02-07T17:11:58.458Z,13.88
2023-02-07T17:14:28.692Z,12.10
2023-02-07T17:16:59.671Z,10.50
2023-02-07T17:19:29.965Z,11.82
2023-02-07T17:21:59.335Z,14.15
2023-02-07T17:24:28.616Z,12.45
2023-02-07T17:26:58.359Z,9.18
2023-02-07T17:29:27.668Z,7.50
2023-02-07T17:31:56.984Z,13.18
2023-02-07T17:34:27.006Z,9.23
2023-02-07T17:36:56.293Z,12.95
2023-02-07T17:39:25.628Z,13.07
2023-02-07T17:41:54.834Z,9.23
2023-02-07T17:44:25.281Z,13.35
2023-02-07T17:46:54.590Z,14.85
2023-02-07T17:49:23.848Z,11.45
2023-02-07T17:51:53.134Z,11.52
2023-02-07T17:54:22.412Z,15.23
2023-02-07T17:56:51.690Z,15.77
2023-02-07T17:59:24.635Z,22.52
2023-02-07T18:01:54.607Z,26.77
2023-02-07T18:04:24.116Z,20.52
2023-02-07T18:06:53.639Z,23.23
2023-02-07T18:09:23.424Z,23.05
2023-02-07T18:11:52.763Z,16.13
2023-02-07T18:14:22.056Z,18.42
2023-02-07T18:16:51.450Z,23.92
2023-02-07T18:19:21.079Z,14.73
2023-02-07T18:21:51.055Z,15.55
2023-02-07T18:24:23.343Z,10.88
2023-02-07T18:26:53.548Z,11.88
2023-02-07T18:29:22.836Z,14.25
2023-02-07T18:31:52.199Z,11.15
2023-02-07T18:34:21.563Z,9.90
2023-02-07T18:36:50.885Z,11.23
2023-02-07T18:39:20.219Z,13.32
2023-02-07T18:41:49.545Z,12.20
2023-02-07T18:44:20.085Z,10.73
2023-02-07T18:46:49.477Z,15.10
2023-02-07T18:49:18.697Z,12.52
2023-02-07T18:51:47.946Z,29.88
2023-02-07T18:54:17.381Z,16.98
2023-02-07T18:56:52.017Z,21.65
2023-02-07T18:59:22.621Z,13.93
2023-02-07T19:01:53.731Z,12.68
2023-02-07T19:04:23.396Z,20.30
2023-02-07T19:06:53.120Z,16.95
2023-02-07T19:09:23.368Z,18.75
2023-02-07T19:11:53.429Z,19.30
2023-02-07T19:14:23.687Z,14.18
2023-02-07T19:16:55.846Z,13.90
2023-02-07T19:19:27.567Z,19.50
2023-02-07T19:21:57.381Z,17.58
2023-02-07T19:24:26.880Z,14.75
2023-02-07T19:26:57.789Z,15.73
2023-02-07T19:29:30.710Z,12.32
2023-02-07T19:32:00.770Z,10.50
2023-02-07T19:34:30.079Z,11.00
2023-02-07T19:36:59.530Z,13.63
2023-02-07T19:39:28.928Z,9.43
2023-02-07T19:41:58.175Z,14.70
2023-02-07T19:44:27.749Z,15.98
2023-02-07T19:46:57.100Z,12.30
2023-02-07T19:49:26.496Z,15.50
2023-02-07T19:51:55.769Z,15.05
2023-02-07T19:54:25.120Z,13.50
2023-02-07T19:56:54.486Z,13.52
2023-02-07T19:59:23.753Z,11.65
2023-02-07T20:01:53.877Z,12.38
2023-02-07T20:04:23.251Z,14.50
2023-02-07T20:06:54.585Z,12.55
2023-02-07T20:09:23.859Z,14.20
2023-02-07T20:11:53.100Z,14.38
2023-02-07T20:14:23.371Z,15.05
2023-02-07T20:16:52.639Z,15.77
2023-02-07T20:19:22.117Z,16.73
2023-02-07T20:21:51.395Z,12.93
2023-02-07T20:24:20.676Z,16.75
2023-02-07T20:26:49.994Z,18.23
2023-02-07T20:29:20.061Z,21.02
2023-02-07T20:31:50.127Z,17.98
2023-02-07T20:34:19.842Z,18.02
2023-02-07T20:36:49.133Z,19.77
2023-02-07T20:39:20.130Z,21.45
2023-02-07T20:41:50.102Z,20.98
2023-02-07T20:44:24.515Z,15.73
2023-02-07T20:46:53.880Z,22.33
2023-02-07T20:49:28.454Z,18.80
2023-02-07T20:51:58.405Z,16.95
2023-02-07T20:54:29.727Z,16.67
2023-02-07T20:56:59.461Z,11.85
2023-02-07T20:59:29.823Z,15.90
2023-02-07T21:01:59.603Z,16.92
2023-02-07T21:04:29.467Z,23.90
2023-02-07T21:06:58.927Z,14.85
2023-02-07T21:09:28.327Z,17.20
2023-02-07T21:11:57.543Z,19.38
2023-02-07T21:14:31.273Z,12.45
2023-02-07T21:17:01.848Z,15.00
2023-02-07T21:19:31.485Z,16.60
2023-02-07T21:22:00.775Z,20.17
2023-02-07T21:24:32.100Z,26.77
2023-02-07T21:27:03.188Z,14.73
2023-02-07T21:29:34.136Z,25.33
2023-02-07T21:32:03.475Z,20.08
2023-02-07T21:34:32.711Z,20.35
2023-02-07T21:37:02.075Z,32.13
2023-02-07T21:39:31.489Z,38.45
2023-02-07T21:42:01.544Z,29.45
2023-02-07T21:44:30.818Z,29.33
2023-02-07T21:47:00.101Z,29.02
2023-02-07T21:49:29.380Z,25.35
2023-02-07T21:52:00.862Z,22.58
2023-02-07T21:54:30.070Z,18.23
2023-02-07T21:56:59.466Z,15.50
2023-02-07T21:59:29.835Z,15.82
2023-02-07T22:01:59.392Z,15.55
2023-02-07T22:04:29.245Z,17.77
2023-02-07T22:06:58.586Z,17.98
2023-02-07T22:09:27.879Z,19.17
2023-02-07T22:11:57.257Z,16.98
2023-02-07T22:14:29.454Z,18.55
2023-02-07T22:16:59.062Z,19.33
2023-02-07T22:19:28.388Z,12.23
2023-02-07T22:21:59.013Z,15.23
2023-02-07T22:24:31.769Z,19.13
2023-02-07T22:27:01.040Z,17.48
2023-02-07T22:29:30.387Z,19.45
2023-02-07T22:31:59.689Z,18.70
2023-02-07T22:34:28.991Z,19.52
2023-02-07T22:37:00.977Z,18.90
2023-02-07T22:39:30.254Z,15.63
2023-02-07T22:41:59.686Z,27.42
2023-02-07T22:44:28.943Z,19.38
2023-02-07T22:46:58.225Z,21.25
2023-02-07T22:49:27.544Z,20.92
2023-02-07T22:51:56.898Z,17.98
2023-02-07T22:54:26.170Z,14.98
2023-02-07T22:56:55.424Z,17.60
2023-02-07T22:59:24.787Z,18.30
2023-02-07T23:01:54.125Z,22.05
2023-02-07T23:04:23.469Z,21.45
2023-02-07T23:06:54.139Z,20.13
2023-02-07T23:09:23.548Z,19.45
2023-02-07T23:11:52.841Z,19.08
2023-02-07T23:14:22.108Z,18.50
2023-02-07T23:16:53.928Z,17.80
2023-02-07T23:19:23.174Z,17.17
2023-02-07T23:21:52.494Z,17.33
2023-02-07T23:24:21.747Z,16.85
2023-02-07T23:26:51.011Z,19.63
2023-02-07T23:29:23.293Z,17.60
2023-02-07T23:31:53.793Z,15.50
2023-02-07T23:34:23.081Z,19.98
2023-02-07T23:36:52.449Z,15.32
2023-02-07T23:39:21.757Z,17.35
2023-02-07T23:41:51.078Z,16.85
2023-02-07T23:44:22.919Z,22.63
2023-02-07T23:46:55.068Z,13.90
2023-02-07T23:49:24.386Z,15.80
2023-02-07T23:51:53.629Z,14.10
2023-02-07T23:54:22.991Z,17.52
2023-02-07T23:56:55.336Z,16.67
2023-02-07T23:59:24.647Z,16.88
